In Rescue
 
Open Full Screen Window  High Contrast Mode
Wind Gusting 00 knots
05
May 13, 2021 11:18 AM EDT
Weather Information
Wind Direction
  210 °
Wind Speed
  05 kt (6 mph)
Wind Gust
  00 kt (0 mph)
Altimeter
30.38 in
Visibility
10 SM
Temperature
15° C
59° F
Dewpoint
-07° C
19° F
Humidity
21%
Sky Condition
Clear
VFR

METAR KACB 131518Z AUTO 21005KT 10SM CLR 15/M07 A3038 RMK AO2 T01541069

FAA Disclaimer: The data displayed is for advisory purposes only and is not to be used for flight planning or operations.